createdAt,value
2022-08-17T00:00:34.388Z,97187.29
2022-08-17T00:03:13.609Z,97186.89
2022-08-17T00:05:47.351Z,97189.77
2022-08-17T00:08:17.797Z,97187.69
2022-08-17T00:10:46.752Z,97189.91
2022-08-17T00:13:25.898Z,97187.23
2022-08-17T00:16:04.748Z,97177.72
2022-08-17T00:18:57.452Z,97175.66
2022-08-17T00:21:25.121Z,97174.25
2022-08-17T00:23:54.852Z,97169.35
2022-08-17T00:26:44.160Z,97177.04
2022-08-17T00:29:19.580Z,97174.64
2022-08-17T00:31:49.543Z,97169.70
2022-08-17T00:34:19.070Z,97170.11
2022-08-17T00:36:47.049Z,97163.83
2022-08-17T00:39:14.958Z,97168.52
2022-08-17T00:41:43.443Z,97160.92
2022-08-17T00:44:12.451Z,97160.89
2022-08-17T00:46:43.199Z,97163.52
2022-08-17T00:49:13.085Z,97166.43
2022-08-17T00:51:50.677Z,97165.67
2022-08-17T00:54:27.323Z,97168.65
2022-08-17T00:56:59.737Z,97166.87
2022-08-17T00:59:34.388Z,97168.18
2022-08-17T01:02:03.869Z,97167.05
2022-08-17T01:04:33.632Z,97173.12
2022-08-17T01:07:03.576Z,97170.54
2022-08-17T01:09:32.426Z,97175.76
2022-08-17T01:12:00.792Z,97174.91
2022-08-17T01:14:28.992Z,97179.48
2022-08-17T01:16:57.544Z,97178.05
2022-08-17T01:19:29.629Z,97179.73
2022-08-17T01:22:06.596Z,97181.46
2022-08-17T01:24:37.178Z,97179.45
2022-08-17T01:27:10.090Z,97172.37
2022-08-17T01:29:41.343Z,97173.01
2022-08-17T01:32:10.126Z,97178.07
2022-08-17T01:34:42.716Z,97174.92
2022-08-17T01:37:14.394Z,97178.33
2022-08-17T01:40:03.065Z,97176.83
2022-08-17T01:42:37.715Z,97177.38
2022-08-17T01:45:11.680Z,97169.17
2022-08-17T01:47:41.799Z,97166.59
2022-08-17T01:50:13.821Z,97164.25
2022-08-17T01:52:45.561Z,97164.61
2022-08-17T01:55:17.065Z,97162.89
2022-08-17T01:57:45.717Z,97161.66
2022-08-17T02:00:14.480Z,97162.04
2022-08-17T02:02:46.022Z,97165.39
2022-08-17T02:05:14.627Z,97169.95
2022-08-17T02:07:59.763Z,97173.52
2022-08-17T02:10:33.750Z,97170.85
2022-08-17T02:13:04.282Z,97169.17
2022-08-17T02:15:32.318Z,97172.42
2022-08-17T02:18:02.002Z,97170.55
2022-08-17T02:20:41.303Z,97171.08
2022-08-17T02:23:13.002Z,97174.52
2022-08-17T02:25:43.579Z,97177.68
2022-08-17T02:28:12.410Z,97178.41
2022-08-17T02:30:59.492Z,97182.61
2022-08-17T02:33:42.135Z,97174.92
2022-08-17T02:36:12.726Z,97168.98
2022-08-17T02:38:41.979Z,97163.98
2022-08-17T02:41:10.407Z,97169.54
2022-08-17T02:43:40.194Z,97174.91
2022-08-17T02:46:08.441Z,97176.73
2022-08-17T02:48:36.797Z,97183.78
2022-08-17T02:51:04.780Z,97190.36
2022-08-17T02:53:35.906Z,97188.73
2022-08-17T02:56:04.454Z,97192.48
2022-08-17T02:58:35.851Z,97191.00
2022-08-17T03:01:06.723Z,97191.14
2022-08-17T03:03:35.906Z,97192.61
2022-08-17T03:06:05.272Z,97195.08
2022-08-17T03:08:33.468Z,97192.84
2022-08-17T03:11:01.703Z,97194.23
2022-08-17T03:13:30.938Z,97193.74
2022-08-17T03:15:59.007Z,97197.21
2022-08-17T03:18:28.146Z,97203.33
2022-08-17T03:20:59.349Z,97203.10
2022-08-17T03:23:29.595Z,97206.61
2022-08-17T03:25:58.523Z,97203.80
2022-08-17T03:28:27.542Z,97200.74
2022-08-17T03:30:55.591Z,97203.27
2022-08-17T03:33:23.651Z,97210.05
2022-08-17T03:35:51.792Z,97207.88
2022-08-17T03:38:19.966Z,97211.15
2022-08-17T03:40:58.470Z,97216.41
2022-08-17T03:43:32.614Z,97223.32
2022-08-17T03:46:33.815Z,97230.20
2022-08-17T03:49:25.124Z,97231.27
2022-08-17T03:52:15.677Z,97229.97
2022-08-17T03:55:03.377Z,97231.11
2022-08-17T03:57:32.537Z,97236.63
2022-08-17T04:00:00.610Z,97237.61
2022-08-17T04:02:31.768Z,97239.82
2022-08-17T04:05:00.091Z,97241.72
2022-08-17T04:07:30.913Z,97243.52
2022-08-17T04:10:00.312Z,97240.73
2022-08-17T04:12:31.135Z,97240.44
2022-08-17T04:14:59.430Z,97239.14
2022-08-17T04:17:29.259Z,97238.54
2022-08-17T04:19:58.252Z,97239.82
2022-08-17T04:22:33.121Z,97238.67
2022-08-17T04:25:06.985Z,97241.20
2022-08-17T04:27:35.129Z,97244.79
2022-08-17T04:30:07.367Z,97252.48
2022-08-17T04:33:05.836Z,97254.86
2022-08-17T04:35:50.467Z,97249.55
2022-08-17T04:38:25.140Z,97253.09
2022-08-17T04:41:11.758Z,97256.29
2022-08-17T04:43:42.190Z,97247.77
2022-08-17T04:46:15.178Z,97240.70
2022-08-17T04:48:46.564Z,97243.17
2022-08-17T04:51:35.926Z,97242.27
2022-08-17T04:54:16.970Z,97249.42
2022-08-17T04:56:45.799Z,97248.55
2022-08-17T04:59:17.126Z,97239.17
2022-08-17T05:01:47.957Z,97239.65
2022-08-17T05:04:32.972Z,97246.29
2022-08-17T05:07:04.350Z,97243.42
2022-08-17T05:09:32.685Z,97241.55
2022-08-17T05:12:03.808Z,97243.09
2022-08-17T05:14:33.420Z,97257.76
2022-08-17T05:17:09.589Z,97256.95
2022-08-17T05:19:39.666Z,97252.75
2022-08-17T05:22:08.421Z,97249.19
2022-08-17T05:24:39.114Z,97252.04
2022-08-17T05:27:15.080Z,97240.75
2022-08-17T05:29:47.018Z,97237.33
2022-08-17T05:32:39.221Z,97242.78
2022-08-17T05:35:04.366Z,97240.27
2022-08-17T05:37:32.345Z,97246.04
2022-08-17T05:40:00.795Z,97250.52
2022-08-17T05:42:28.863Z,97251.89
2022-08-17T05:44:59.950Z,97260.73
2022-08-17T05:47:28.720Z,97256.79
2022-08-17T05:49:57.503Z,97248.33
2022-08-17T05:52:59.662Z,97258.87
2022-08-17T05:55:59.184Z,97251.31
2022-08-17T05:58:49.604Z,97234.80
2022-08-17T06:01:26.485Z,97235.20
2022-08-17T06:04:19.052Z,97223.02
2022-08-17T06:06:54.810Z,97224.80
2022-08-17T06:09:33.450Z,97244.08
2022-08-17T06:12:04.841Z,97245.70
2022-08-17T06:14:51.278Z,97262.93
2022-08-17T06:17:22.890Z,97244.10
2022-08-17T06:19:55.801Z,97216.45
2022-08-17T06:22:29.742Z,97228.04
2022-08-17T06:25:02.608Z,97219.75
2022-08-17T06:27:40.684Z,97211.35
2022-08-17T06:30:14.808Z,97198.69
2022-08-17T06:32:47.490Z,97209.38
2022-08-17T06:35:19.658Z,97212.26
2022-08-17T06:38:04.537Z,97194.80
2022-08-17T06:40:32.622Z,97203.58
2022-08-17T06:43:21.491Z,97180.54
2022-08-17T06:46:05.316Z,97194.09
2022-08-17T06:48:49.759Z,97184.12
2022-08-17T06:51:39.924Z,97193.41
2022-08-17T06:54:33.791Z,97194.52
2022-08-17T06:57:25.446Z,97190.46
2022-08-17T07:00:25.836Z,97199.80
2022-08-17T07:03:09.798Z,97210.44
2022-08-17T07:05:52.829Z,97215.59
2022-08-17T07:08:35.135Z,97218.93
2022-08-17T07:11:16.343Z,97203.85
2022-08-17T07:14:07.548Z,97232.38
2022-08-17T07:16:49.131Z,97239.98
2022-08-17T07:19:20.168Z,97206.14
2022-08-17T07:22:25.624Z,97174.10
2022-08-17T07:24:59.743Z,97178.06
2022-08-17T07:27:31.771Z,97203.66
2022-08-17T07:30:10.324Z,97181.89
2022-08-17T07:32:50.868Z,97186.37
2022-08-17T07:35:59.699Z,97169.77
2022-08-17T07:38:30.832Z,97164.64
2022-08-17T07:41:05.316Z,97155.15
2022-08-17T07:43:39.666Z,97159.53
2022-08-17T07:46:53.434Z,97158.90
2022-08-17T07:49:35.129Z,97152.98
2022-08-17T07:52:48.062Z,97156.29
2022-08-17T07:54:59.867Z,97160.17
2022-08-17T07:57:37.572Z,97163.63
2022-08-17T08:00:17.608Z,97170.39
2022-08-17T08:02:59.733Z,97172.50
2022-08-17T08:05:50.074Z,97160.59
2022-08-17T08:08:21.653Z,97166.88
2022-08-17T08:11:12.693Z,97154.23
2022-08-17T08:13:43.976Z,97155.02
2022-08-17T08:16:16.524Z,97175.83
2022-08-17T08:18:59.707Z,97162.60
2022-08-17T08:21:35.522Z,97174.23
2022-08-17T08:24:12.969Z,97169.41
2022-08-17T08:27:16.095Z,97163.23
2022-08-17T08:30:05.357Z,97146.36
2022-08-17T08:33:00.667Z,97151.20
2022-08-17T08:35:32.926Z,97158.55
2022-08-17T08:38:34.595Z,97158.78
2022-08-17T08:41:26.356Z,97157.48
2022-08-17T08:44:03.824Z,97158.44
2022-08-17T08:46:43.860Z,97144.92
2022-08-17T08:50:02.860Z,97147.92
2022-08-17T08:52:56.353Z,97152.52
2022-08-17T08:55:34.665Z,97145.56
2022-08-17T08:58:31.632Z,97150.27
2022-08-17T09:01:09.309Z,97143.09
2022-08-17T09:04:19.603Z,97150.52
2022-08-17T09:07:13.368Z,97151.48
2022-08-17T09:09:48.930Z,97143.69
2022-08-17T09:12:41.798Z,97151.02
2022-08-17T09:15:27.281Z,97152.14
2022-08-17T09:18:59.040Z,97146.73
2022-08-17T09:21:14.478Z,97148.54
2022-08-17T09:24:24.679Z,97156.99
2022-08-17T09:27:25.835Z,97159.68
2022-08-17T09:30:02.893Z,97162.17
2022-08-17T09:32:38.153Z,97165.27
2022-08-17T09:35:16.651Z,97156.64
2022-08-17T09:38:01.730Z,97148.11
2022-08-17T09:40:43.522Z,97150.48
2022-08-17T09:43:29.955Z,97156.78
2022-08-17T09:46:03.080Z,97164.56
2022-08-17T09:48:39.312Z,97164.02
2022-08-17T09:51:33.439Z,97158.46
2022-08-17T09:54:37.014Z,97158.84
2022-08-17T09:57:32.332Z,97163.58
2022-08-17T10:00:16.552Z,97158.66
2022-08-17T10:03:03.209Z,97156.36
2022-08-17T10:05:56.571Z,97154.71
2022-08-17T10:08:46.907Z,97150.94
2022-08-17T10:11:48.157Z,97148.45
2022-08-17T10:14:38.027Z,97142.98
2022-08-17T10:17:15.592Z,97150.63
2022-08-17T10:19:55.813Z,97153.94
2022-08-17T10:22:53.039Z,97146.88
2022-08-17T10:25:54.520Z,97151.70
2022-08-17T10:28:30.435Z,97150.96
2022-08-17T10:31:33.270Z,97143.20
2022-08-17T10:33:59.022Z,97144.55
2022-08-17T10:36:57.136Z,97136.63
2022-08-17T10:39:50.403Z,97134.24
2022-08-17T10:42:30.804Z,97125.20
2022-08-17T10:45:19.340Z,97130.52
2022-08-17T10:48:05.626Z,97126.27
2022-08-17T10:51:07.639Z,97127.39
2022-08-17T10:53:36.291Z,97126.88
2022-08-17T10:56:14.276Z,97123.35
2022-08-17T10:58:59.685Z,97122.14
2022-08-17T11:01:34.263Z,97117.31
2022-08-17T11:04:38.761Z,97118.61
2022-08-17T11:07:14.045Z,97112.98
2022-08-17T11:10:16.957Z,97114.96
2022-08-17T11:13:01.772Z,97119.31
2022-08-17T11:16:00.614Z,97127.33
2022-08-17T11:18:57.194Z,97127.70
2022-08-17T11:21:34.979Z,97124.13
2022-08-17T11:24:32.437Z,97135.09
2022-08-17T11:27:25.557Z,97135.48
2022-08-17T11:30:02.685Z,97132.27
2022-08-17T11:32:37.656Z,97125.89
2022-08-17T11:35:20.961Z,97131.88
2022-08-17T11:38:16.910Z,97122.27
2022-08-17T11:41:00.339Z,97109.30
2022-08-17T11:43:38.367Z,97106.78
2022-08-17T11:46:58.222Z,97099.31
2022-08-17T11:50:28.037Z,97102.98
2022-08-17T11:52:59.265Z,97104.41
2022-08-17T11:55:38.239Z,97094.36
2022-08-17T11:58:44.944Z,97091.77
2022-08-17T12:01:22.859Z,97095.02
2022-08-17T12:03:57.853Z,97089.24
2022-08-17T12:06:30.338Z,97081.58
2022-08-17T12:09:40.433Z,97087.59
2022-08-17T12:12:19.960Z,97088.77
2022-08-17T12:15:10.533Z,97080.63
2022-08-17T12:17:56.031Z,97090.08
2022-08-17T12:20:30.512Z,97079.55
2022-08-17T12:23:05.375Z,97071.64
2022-08-17T12:25:52.128Z,97067.44
2022-08-17T12:28:27.522Z,97069.21
2022-08-17T12:31:07.371Z,97075.04
2022-08-17T12:33:37.229Z,97081.48
2022-08-17T12:36:09.058Z,97084.20
2022-08-17T12:38:38.397Z,97080.84
2022-08-17T12:41:39.067Z,97078.69
2022-08-17T12:44:16.661Z,97078.75
2022-08-17T12:47:21.106Z,97066.92
2022-08-17T12:49:52.827Z,97072.27
2022-08-17T12:52:29.155Z,97079.77
2022-08-17T12:55:26.387Z,97074.80
2022-08-17T12:58:05.154Z,97069.83
2022-08-17T13:00:38.195Z,97079.09
2022-08-17T13:03:24.025Z,97083.36
2022-08-17T13:05:57.174Z,97071.23
2022-08-17T13:08:32.869Z,97071.77
2022-08-17T13:11:24.909Z,97084.57
2022-08-17T13:13:56.538Z,97086.23
2022-08-17T13:16:32.604Z,97092.92
2022-08-17T13:19:20.450Z,97078.55
2022-08-17T13:22:12.579Z,97072.34
2022-08-17T13:24:53.233Z,97069.23
2022-08-17T13:27:25.600Z,97077.23
2022-08-17T13:29:59.672Z,97073.02
2022-08-17T13:32:36.206Z,97071.39
2022-08-17T13:35:32.405Z,97079.75
2022-08-17T13:38:15.607Z,97088.64
2022-08-17T13:40:51.003Z,97086.67
2022-08-17T13:43:58.404Z,97084.85
2022-08-17T13:46:52.543Z,97085.99
2022-08-17T13:49:42.073Z,97077.04
2022-08-17T13:52:43.506Z,97083.51
2022-08-17T13:55:20.714Z,97090.00
2022-08-17T13:58:00.925Z,97089.09
2022-08-17T14:00:36.537Z,97097.99
2022-08-17T14:03:06.145Z,97082.99
2022-08-17T14:05:38.076Z,97078.63
2022-08-17T14:08:07.471Z,97086.67
2022-08-17T14:10:37.598Z,97093.67
2022-08-17T14:13:07.347Z,97082.63
2022-08-17T14:15:55.601Z,97074.69
2022-08-17T14:18:31.147Z,97070.29
2022-08-17T14:21:14.625Z,97068.81
2022-08-17T14:23:51.348Z,97068.02
2022-08-17T14:26:25.772Z,97067.83
2022-08-17T14:28:56.588Z,97062.29
2022-08-17T14:31:27.589Z,97065.98
2022-08-17T14:33:55.651Z,97068.42
2022-08-17T14:36:23.627Z,97069.36
2022-08-17T14:38:51.855Z,97067.81
2022-08-17T14:41:23.706Z,97074.96
2022-08-17T14:43:53.715Z,97068.05
2022-08-17T14:46:22.754Z,97075.69
2022-08-17T14:48:57.306Z,97079.73
2022-08-17T14:51:29.965Z,97078.91
2022-08-17T14:53:58.966Z,97083.20
2022-08-17T14:56:31.678Z,97082.51
2022-08-17T14:59:06.334Z,97083.55
2022-08-17T15:01:35.502Z,97081.45
2022-08-17T15:04:03.722Z,97083.61
2022-08-17T15:06:32.733Z,97085.80
2022-08-17T15:09:04.647Z,97091.45
2022-08-17T15:11:35.546Z,97091.56
2022-08-17T15:14:03.694Z,97092.34
2022-08-17T15:16:34.743Z,97088.02
2022-08-17T15:19:07.109Z,97083.76
2022-08-17T15:21:36.119Z,97081.61
2022-08-17T15:24:06.091Z,97088.34
2022-08-17T15:26:37.007Z,97092.40
2022-08-17T15:29:06.464Z,97097.23
2022-08-17T15:31:38.231Z,97105.02
2022-08-17T15:34:08.009Z,97106.80
2022-08-17T15:36:37.137Z,97113.30
2022-08-17T15:39:08.280Z,97119.91
2022-08-17T15:41:36.484Z,97135.66
2022-08-17T15:44:05.036Z,97151.89
2022-08-17T15:46:33.157Z,97184.52
2022-08-17T15:49:03.969Z,97196.95
2022-08-17T15:51:35.252Z,97224.27
2022-08-17T15:54:18.862Z,97232.88
2022-08-17T15:56:50.863Z,97256.34
2022-08-17T15:59:19.645Z,97268.77
2022-08-17T16:03:13.485Z,97269.49
2022-08-17T16:04:40.369Z,97295.38
2022-08-17T16:07:12.653Z,97309.80
2022-08-17T16:09:40.800Z,97326.02
2022-08-17T16:12:16.742Z,97323.25
2022-08-17T16:14:46.874Z,97314.77
2022-08-17T16:17:38.301Z,97301.73
2022-08-17T16:20:05.104Z,97289.77
2022-08-17T16:22:41.993Z,97282.45
2022-08-17T16:25:14.422Z,97280.54
2022-08-17T16:27:44.500Z,97271.06
2022-08-17T16:30:17.633Z,97279.70
2022-08-17T16:32:48.346Z,97268.45
2022-08-17T16:35:18.376Z,97267.86
2022-08-17T16:37:47.248Z,97256.12
2022-08-17T16:40:17.491Z,97241.22
2022-08-17T16:42:48.581Z,97245.45
2022-08-17T16:45:23.115Z,97246.92
2022-08-17T16:47:52.161Z,97241.05
2022-08-17T16:50:23.653Z,97267.00
2022-08-17T16:52:52.874Z,97283.66
2022-08-17T16:55:22.214Z,97282.27
2022-08-17T16:57:50.984Z,97295.55
2022-08-17T17:00:21.137Z,97286.86
2022-08-17T17:02:49.854Z,97292.00
2022-08-17T17:05:51.408Z,97295.55
2022-08-17T17:08:54.471Z,97304.86
2022-08-17T17:11:28.355Z,97318.98
2022-08-17T17:13:59.804Z,97323.55
2022-08-17T17:16:50.487Z,97323.92
2022-08-17T17:19:45.911Z,97321.02
2022-08-17T17:22:24.604Z,97332.27
2022-08-17T17:25:33.212Z,97342.44
2022-08-17T17:28:24.951Z,97328.91
2022-08-17T17:31:15.511Z,97334.63
2022-08-17T17:33:50.675Z,97337.11
2022-08-17T17:36:38.370Z,97340.52
2022-08-17T17:39:37.766Z,97349.27
2022-08-17T17:42:11.732Z,97347.04
2022-08-17T17:44:53.403Z,97341.96
2022-08-17T17:47:22.235Z,97343.70
2022-08-17T17:49:52.796Z,97336.33
2022-08-17T17:52:50.498Z,97332.04
2022-08-17T17:56:00.759Z,97338.33
2022-08-17T17:58:31.932Z,97351.11
2022-08-17T18:01:23.044Z,97367.60
2022-08-17T18:04:17.577Z,97370.51
2022-08-17T18:07:10.155Z,97370.52
2022-08-17T18:10:04.702Z,97369.21
2022-08-17T18:13:00.178Z,97375.79
2022-08-17T18:15:29.838Z,97374.73
2022-08-17T18:18:19.946Z,97376.88
2022-08-17T18:20:56.284Z,97377.90
2022-08-17T18:23:28.472Z,97378.52
2022-08-17T18:25:58.775Z,97386.92
2022-08-17T18:28:39.827Z,97386.36
2022-08-17T18:31:17.156Z,97387.05
2022-08-17T18:33:48.798Z,97391.15
2022-08-17T18:36:30.493Z,97390.02
2022-08-17T18:39:14.717Z,97389.98
2022-08-17T18:41:48.683Z,97388.27
2022-08-17T18:44:31.238Z,97384.52
2022-08-17T18:47:18.719Z,97384.86
2022-08-17T18:49:50.172Z,97386.91
2022-08-17T18:52:23.307Z,97394.80
2022-08-17T18:55:08.876Z,97389.83
2022-08-17T18:57:44.593Z,97389.34
2022-08-17T19:00:22.833Z,97388.81
2022-08-17T19:02:57.367Z,97385.81
2022-08-17T19:05:27.932Z,97384.30
2022-08-17T19:08:17.982Z,97384.52
2022-08-17T19:10:50.589Z,97382.70
2022-08-17T19:13:31.619Z,97387.64
2022-08-17T19:16:14.811Z,97395.39
2022-08-17T19:18:49.331Z,97396.52
2022-08-17T19:21:34.485Z,97397.70
2022-08-17T19:24:34.658Z,97399.64
2022-08-17T19:27:57.271Z,97402.80
2022-08-17T19:30:26.258Z,97400.44
2022-08-17T19:32:57.191Z,97396.09
2022-08-17T19:35:43.543Z,97395.16
2022-08-17T19:38:36.413Z,97399.47
2022-08-17T19:41:34.347Z,97407.80
2022-08-17T19:44:29.121Z,97407.31
2022-08-17T19:47:12.326Z,97401.09
2022-08-17T19:50:00.321Z,97396.98
2022-08-17T19:52:48.875Z,97399.20
2022-08-17T19:55:51.791Z,97397.86
2022-08-17T19:58:32.367Z,97400.22
2022-08-17T20:01:02.684Z,97404.30
2022-08-17T20:03:35.049Z,97405.21
2022-08-17T20:06:13.024Z,97395.79
2022-08-17T20:08:59.860Z,97396.23
2022-08-17T20:11:41.740Z,97390.54
2022-08-17T20:14:12.639Z,97391.89
2022-08-17T20:16:41.051Z,97391.39
2022-08-17T20:19:23.491Z,97397.52
2022-08-17T20:22:09.987Z,97403.53
2022-08-17T20:24:48.400Z,97412.35
2022-08-17T20:27:21.916Z,97420.88
2022-08-17T20:30:41.301Z,97417.23
2022-08-17T20:33:23.086Z,97406.92
2022-08-17T20:36:25.050Z,97411.53
2022-08-17T20:38:56.868Z,97408.15
2022-08-17T20:41:30.574Z,97414.16
2022-08-17T20:43:59.115Z,97412.60
2022-08-17T20:46:51.575Z,97408.14
2022-08-17T20:49:41.581Z,97406.64
2022-08-17T20:52:13.699Z,97412.11
2022-08-17T20:54:46.154Z,97409.48
2022-08-17T20:57:32.498Z,97414.03
2022-08-17T21:00:28.604Z,97414.63
2022-08-17T21:03:24.295Z,97413.12
2022-08-17T21:05:57.327Z,97415.69
2022-08-17T21:08:35.980Z,97411.17
2022-08-17T21:11:57.134Z,97413.80
2022-08-17T21:14:36.571Z,97413.30
2022-08-17T21:17:33.182Z,97404.33
2022-08-17T21:20:14.770Z,97401.86
2022-08-17T21:23:30.597Z,97399.49
2022-08-17T21:26:12.549Z,97402.66
2022-08-17T21:29:00.888Z,97403.54
2022-08-17T21:32:08.513Z,97407.06
2022-08-17T21:34:43.272Z,97407.85
2022-08-17T21:37:20.129Z,97400.55
2022-08-17T21:39:56.224Z,97400.00
2022-08-17T21:42:37.459Z,97395.48
2022-08-17T21:45:22.451Z,97398.05
2022-08-17T21:48:07.144Z,97404.70
2022-08-17T21:50:35.685Z,97411.23
2022-08-17T21:53:05.663Z,97409.41
2022-08-17T21:55:36.131Z,97410.33
2022-08-17T21:58:24.618Z,97415.09
2022-08-17T22:01:11.062Z,97412.14
2022-08-17T22:03:47.753Z,97412.84
2022-08-17T22:06:26.325Z,97411.66
2022-08-17T22:09:00.232Z,97408.58
2022-08-17T22:11:28.581Z,97411.21
2022-08-17T22:14:00.644Z,97411.56
2022-08-17T22:16:34.974Z,97411.65
2022-08-17T22:19:04.929Z,97412.66
2022-08-17T22:21:33.074Z,97412.86
2022-08-17T22:24:16.397Z,97408.13
2022-08-17T22:27:02.129Z,97408.49
2022-08-17T22:29:58.542Z,97411.27
2022-08-17T22:32:42.800Z,97409.48
2022-08-17T22:35:29.473Z,97408.52
2022-08-17T22:38:27.224Z,97411.35
2022-08-17T22:41:15.215Z,97407.73
2022-08-17T22:43:44.812Z,97410.91
2022-08-17T22:46:14.391Z,97405.52
2022-08-17T22:48:52.338Z,97403.00
2022-08-17T22:51:28.422Z,97401.54
2022-08-17T22:54:21.685Z,97404.49
2022-08-17T22:57:18.809Z,97400.95
2022-08-17T22:59:52.987Z,97400.19
2022-08-17T23:02:53.070Z,97399.52
2022-08-17T23:05:24.109Z,97398.98
2022-08-17T23:07:53.011Z,97397.02
2022-08-17T23:10:21.018Z,97400.23
2022-08-17T23:12:49.141Z,97401.53
2022-08-17T23:15:19.095Z,97403.31
2022-08-17T23:17:47.774Z,97406.89
2022-08-17T23:20:17.671Z,97412.48
2022-08-17T23:22:51.413Z,97414.35
2022-08-17T23:25:28.437Z,97416.54
2022-08-17T23:27:58.589Z,97410.25
2022-08-17T23:30:28.640Z,97404.89
2022-08-17T23:33:01.141Z,97395.44
2022-08-17T23:35:40.166Z,97397.95
2022-08-17T23:38:11.218Z,97394.29
2022-08-17T23:40:40.982Z,97390.47
2022-08-17T23:43:23.906Z,97386.29
2022-08-17T23:45:59.759Z,97386.34
2022-08-17T23:48:35.432Z,97388.20
2022-08-17T23:51:08.853Z,97385.84
2022-08-17T23:53:40.363Z,97381.27
2022-08-17T23:56:11.343Z,97385.33
2022-08-17T23:58:44.950Z,97392.39
